sensor_id;sensor_type;location;lat;lon;timestamp;temperature;humidity
4602;DHT22;2313;48.552;9.370;2023-04-06T00:00:50;3.80;70.40
4602;DHT22;2313;48.552;9.370;2023-04-06T00:03:17;3.90;70.00
4602;DHT22;2313;48.552;9.370;2023-04-06T00:05:43;3.80;70.10
4602;DHT22;2313;48.552;9.370;2023-04-06T00:08:08;3.90;69.80
4602;DHT22;2313;48.552;9.370;2023-04-06T00:10:34;3.90;69.30
4602;DHT22;2313;48.552;9.370;2023-04-06T00:13:00;3.90;69.40
4602;DHT22;2313;48.552;9.370;2023-04-06T00:15:26;3.90;69.50
4602;DHT22;2313;48.552;9.370;2023-04-06T00:17:52;3.90;69.20
4602;DHT22;2313;48.552;9.370;2023-04-06T00:20:18;3.90;69.30
4602;DHT22;2313;48.552;9.370;2023-04-06T00:22:44;4.00;69.10
4602;DHT22;2313;48.552;9.370;2023-04-06T00:25:11;3.90;68.80
4602;DHT22;2313;48.552;9.370;2023-04-06T00:27:37;4.00;68.00
4602;DHT22;2313;48.552;9.370;2023-04-06T00:30:04;4.10;68.60
4602;DHT22;2313;48.552;9.370;2023-04-06T00:32:30;3.90;72.50
4602;DHT22;2313;48.552;9.370;2023-04-06T00:34:56;3.70;74.40
4602;DHT22;2313;48.552;9.370;2023-04-06T00:37:22;3.50;76.00
4602;DHT22;2313;48.552;9.370;2023-04-06T00:39:47;3.40;77.00
4602;DHT22;2313;48.552;9.370;2023-04-06T00:42:14;3.40;76.40
4602;DHT22;2313;48.552;9.370;2023-04-06T00:44:43;3.40;73.20
4602;DHT22;2313;48.552;9.370;2023-04-06T00:47:09;3.50;71.40
4602;DHT22;2313;48.552;9.370;2023-04-06T00:49:35;3.50;71.00
4602;DHT22;2313;48.552;9.370;2023-04-06T00:52:01;3.60;71.00
4602;DHT22;2313;48.552;9.370;2023-04-06T00:54:28;3.50;70.80
4602;DHT22;2313;48.552;9.370;2023-04-06T00:56:54;3.60;70.40
4602;DHT22;2313;48.552;9.370;2023-04-06T00:59:20;3.60;70.40
4602;DHT22;2313;48.552;9.370;2023-04-06T01:01:46;3.60;70.40
4602;DHT22;2313;48.552;9.370;2023-04-06T01:04:11;3.60;70.10
4602;DHT22;2313;48.552;9.370;2023-04-06T01:06:37;3.60;70.00
4602;DHT22;2313;48.552;9.370;2023-04-06T01:09:03;3.60;70.10
4602;DHT22;2313;48.552;9.370;2023-04-06T01:11:29;3.60;70.70
4602;DHT22;2313;48.552;9.370;2023-04-06T01:13:55;3.60;70.60
4602;DHT22;2313;48.552;9.370;2023-04-06T01:16:21;3.70;70.50
4602;DHT22;2313;48.552;9.370;2023-04-06T01:18:46;3.70;70.60
4602;DHT22;2313;48.552;9.370;2023-04-06T01:21:12;3.70;70.50
4602;DHT22;2313;48.552;9.370;2023-04-06T01:23:47;3.70;70.80
4602;DHT22;2313;48.552;9.370;2023-04-06T01:26:13;3.80;70.40
4602;DHT22;2313;48.552;9.370;2023-04-06T01:28:39;3.70;70.50
4602;DHT22;2313;48.552;9.370;2023-04-06T01:31:08;3.80;70.80
4602;DHT22;2313;48.552;9.370;2023-04-06T01:33:34;3.80;71.00
4602;DHT22;2313;48.552;9.370;2023-04-06T01:36:01;3.70;70.60
4602;DHT22;2313;48.552;9.370;2023-04-06T01:38:27;3.70;70.90
4602;DHT22;2313;48.552;9.370;2023-04-06T01:40:55;3.60;70.60
4602;DHT22;2313;48.552;9.370;2023-04-06T01:43:21;3.60;71.50
4602;DHT22;2313;48.552;9.370;2023-04-06T01:45:48;3.60;70.80
4602;DHT22;2313;48.552;9.370;2023-04-06T01:48:13;3.60;71.10
4602;DHT22;2313;48.552;9.370;2023-04-06T01:50:39;3.60;71.10
4602;DHT22;2313;48.552;9.370;2023-04-06T01:53:05;3.60;72.60
4602;DHT22;2313;48.552;9.370;2023-04-06T01:55:30;3.10;77.00
4602;DHT22;2313;48.552;9.370;2023-04-06T01:57:56;2.90;81.20
4602;DHT22;2313;48.552;9.370;2023-04-06T02:00:21;2.60;85.60
4602;DHT22;2313;48.552;9.370;2023-04-06T02:02:47;2.40;88.90
4602;DHT22;2313;48.552;9.370;2023-04-06T02:05:13;2.20;90.90
4602;DHT22;2313;48.552;9.370;2023-04-06T02:07:38;2.10;91.60
4602;DHT22;2313;48.552;9.370;2023-04-06T02:10:11;2.00;92.50
4602;DHT22;2313;48.552;9.370;2023-04-06T02:12:37;1.90;93.30
4602;DHT22;2313;48.552;9.370;2023-04-06T02:15:03;1.90;93.30
4602;DHT22;2313;48.552;9.370;2023-04-06T02:17:29;1.90;94.30
4602;DHT22;2313;48.552;9.370;2023-04-06T02:19:55;1.90;94.80
4602;DHT22;2313;48.552;9.370;2023-04-06T02:22:20;1.80;94.40
4602;DHT22;2313;48.552;9.370;2023-04-06T02:24:46;1.80;94.50
4602;DHT22;2313;48.552;9.370;2023-04-06T02:27:13;1.80;94.70
4602;DHT22;2313;48.552;9.370;2023-04-06T02:29:39;1.70;95.20
4602;DHT22;2313;48.552;9.370;2023-04-06T02:32:04;1.60;95.30
4602;DHT22;2313;48.552;9.370;2023-04-06T02:34:31;1.60;95.90
4602;DHT22;2313;48.552;9.370;2023-04-06T02:36:56;1.60;96.20
4602;DHT22;2313;48.552;9.370;2023-04-06T02:39:22;1.50;96.30
4602;DHT22;2313;48.552;9.370;2023-04-06T02:41:48;1.50;97.40
4602;DHT22;2313;48.552;9.370;2023-04-06T02:44:13;1.50;97.30
4602;DHT22;2313;48.552;9.370;2023-04-06T02:46:39;1.40;97.80
4602;DHT22;2313;48.552;9.370;2023-04-06T02:49:05;1.30;98.10
4602;DHT22;2313;48.552;9.370;2023-04-06T02:51:31;1.30;98.20
4602;DHT22;2313;48.552;9.370;2023-04-06T02:53:56;1.30;98.00
4602;DHT22;2313;48.552;9.370;2023-04-06T02:56:22;1.30;97.70
4602;DHT22;2313;48.552;9.370;2023-04-06T02:58:48;1.30;98.10
4602;DHT22;2313;48.552;9.370;2023-04-06T03:01:13;1.20;98.60
4602;DHT22;2313;48.552;9.370;2023-04-06T03:03:40;1.20;98.90
4602;DHT22;2313;48.552;9.370;2023-04-06T03:06:05;1.10;99.60
4602;DHT22;2313;48.552;9.370;2023-04-06T03:08:31;1.10;99.20
4602;DHT22;2313;48.552;9.370;2023-04-06T03:10:57;1.00;99.50
4602;DHT22;2313;48.552;9.370;2023-04-06T03:13:23;1.10;99.60
4602;DHT22;2313;48.552;9.370;2023-04-06T03:15:48;1.00;99.70
4602;DHT22;2313;48.552;9.370;2023-04-06T03:18:14;1.10;99.50
4602;DHT22;2313;48.552;9.370;2023-04-06T03:20:39;1.00;99.50
4602;DHT22;2313;48.552;9.370;2023-04-06T03:23:05;1.10;99.90
4602;DHT22;2313;48.552;9.370;2023-04-06T03:25:31;1.00;99.90
4602;DHT22;2313;48.552;9.370;2023-04-06T03:27:57;1.00;99.90
4602;DHT22;2313;48.552;9.370;2023-04-06T03:30:22;0.90;99.90
4602;DHT22;2313;48.552;9.370;2023-04-06T03:32:48;0.80;99.90
4602;DHT22;2313;48.552;9.370;2023-04-06T03:35:14;0.70;99.90
4602;DHT22;2313;48.552;9.370;2023-04-06T03:37:39;0.70;99.90
4602;DHT22;2313;48.552;9.370;2023-04-06T03:40:06;0.70;99.90
4602;DHT22;2313;48.552;9.370;2023-04-06T03:42:32;0.70;99.90
4602;DHT22;2313;48.552;9.370;2023-04-06T03:44:58;0.70;99.90
4602;DHT22;2313;48.552;9.370;2023-04-06T03:47:24;0.60;99.90
4602;DHT22;2313;48.552;9.370;2023-04-06T03:49:50;0.60;99.90
4602;DHT22;2313;48.552;9.370;2023-04-06T03:52:16;0.60;99.90
4602;DHT22;2313;48.552;9.370;2023-04-06T03:54:41;0.60;99.90
4602;DHT22;2313;48.552;9.370;2023-04-06T03:57:07;0.60;99.90
4602;DHT22;2313;48.552;9.370;2023-04-06T03:59:33;0.60;99.90
4602;DHT22;2313;48.552;9.370;2023-04-06T04:01:58;0.60;99.90
4602;DHT22;2313;48.552;9.370;2023-04-06T04:04:24;0.60;99.90
4602;DHT22;2313;48.552;9.370;2023-04-06T04:06:50;0.60;99.90
4602;DHT22;2313;48.552;9.370;2023-04-06T04:09:15;0.50;99.90
4602;DHT22;2313;48.552;9.370;2023-04-06T04:11:41;0.50;99.90
4602;DHT22;2313;48.552;9.370;2023-04-06T04:14:07;0.50;99.90
4602;DHT22;2313;48.552;9.370;2023-04-06T04:16:32;0.50;99.90
4602;DHT22;2313;48.552;9.370;2023-04-06T04:18:58;0.50;99.90
4602;DHT22;2313;48.552;9.370;2023-04-06T04:21:24;0.40;99.90
4602;DHT22;2313;48.552;9.370;2023-04-06T04:23:51;0.40;99.90
4602;DHT22;2313;48.552;9.370;2023-04-06T04:26:18;0.30;99.90
4602;DHT22;2313;48.552;9.370;2023-04-06T04:28:43;0.40;99.90
4602;DHT22;2313;48.552;9.370;2023-04-06T04:31:09;0.20;99.90
4602;DHT22;2313;48.552;9.370;2023-04-06T04:33:35;0.40;99.90
4602;DHT22;2313;48.552;9.370;2023-04-06T04:36:01;0.30;99.90
4602;DHT22;2313;48.552;9.370;2023-04-06T04:38:26;0.30;99.90
4602;DHT22;2313;48.552;9.370;2023-04-06T04:40:52;0.30;99.90
4602;DHT22;2313;48.552;9.370;2023-04-06T04:43:18;0.30;99.90
4602;DHT22;2313;48.552;9.370;2023-04-06T04:45:43;0.20;99.90
4602;DHT22;2313;48.552;9.370;2023-04-06T04:48:09;0.20;99.90
4602;DHT22;2313;48.552;9.370;2023-04-06T04:50:35;0.20;99.90
4602;DHT22;2313;48.552;9.370;2023-04-06T04:53:01;0.30;99.90
4602;DHT22;2313;48.552;9.370;2023-04-06T04:55:27;0.20;99.90
4602;DHT22;2313;48.552;9.370;2023-04-06T04:57:52;0.30;99.90
4602;DHT22;2313;48.552;9.370;2023-04-06T05:00:18;0.40;99.90
4602;DHT22;2313;48.552;9.370;2023-04-06T05:02:45;0.20;99.90
4602;DHT22;2313;48.552;9.370;2023-04-06T05:05:10;0.30;99.90
4602;DHT22;2313;48.552;9.370;2023-04-06T05:07:36;0.20;99.90
4602;DHT22;2313;48.552;9.370;2023-04-06T05:10:02;0.20;99.90
4602;DHT22;2313;48.552;9.370;2023-04-06T05:12:28;0.10;99.90
4602;DHT22;2313;48.552;9.370;2023-04-06T05:14:54;0.20;99.90
4602;DHT22;2313;48.552;9.370;2023-04-06T05:17:20;0.20;99.90
4602;DHT22;2313;48.552;9.370;2023-04-06T05:19:45;0.30;99.90
4602;DHT22;2313;48.552;9.370;2023-04-06T05:22:11;0.20;99.90
4602;DHT22;2313;48.552;9.370;2023-04-06T05:24:39;0.40;99.90
4602;DHT22;2313;48.552;9.370;2023-04-06T05:27:05;0.40;99.90
4602;DHT22;2313;48.552;9.370;2023-04-06T05:29:31;0.50;99.90
4602;DHT22;2313;48.552;9.370;2023-04-06T05:31:57;0.40;99.90
4602;DHT22;2313;48.552;9.370;2023-04-06T05:34:23;0.40;99.90
4602;DHT22;2313;48.552;9.370;2023-04-06T05:36:48;0.40;99.90
4602;DHT22;2313;48.552;9.370;2023-04-06T05:39:14;0.40;99.90
4602;DHT22;2313;48.552;9.370;2023-04-06T05:41:40;0.50;99.90
4602;DHT22;2313;48.552;9.370;2023-04-06T05:44:05;0.50;99.90
4602;DHT22;2313;48.552;9.370;2023-04-06T05:46:31;0.70;99.90
4602;DHT22;2313;48.552;9.370;2023-04-06T05:48:57;0.80;99.90
4602;DHT22;2313;48.552;9.370;2023-04-06T05:51:22;0.90;99.90
4602;DHT22;2313;48.552;9.370;2023-04-06T05:53:48;1.10;99.90
4602;DHT22;2313;48.552;9.370;2023-04-06T05:56:14;1.20;99.90
4602;DHT22;2313;48.552;9.370;2023-04-06T05:58:39;1.30;99.90
4602;DHT22;2313;48.552;9.370;2023-04-06T06:01:05;1.40;99.90
4602;DHT22;2313;48.552;9.370;2023-04-06T06:03:31;1.60;99.90
4602;DHT22;2313;48.552;9.370;2023-04-06T06:06:03;1.70;99.70
4602;DHT22;2313;48.552;9.370;2023-04-06T06:08:29;1.90;99.60
4602;DHT22;2313;48.552;9.370;2023-04-06T06:10:55;2.00;99.70
4602;DHT22;2313;48.552;9.370;2023-04-06T06:13:22;2.20;99.00
4602;DHT22;2313;48.552;9.370;2023-04-06T06:15:48;2.40;98.70
4602;DHT22;2313;48.552;9.370;2023-04-06T06:18:14;2.60;97.10
4602;DHT22;2313;48.552;9.370;2023-04-06T06:20:40;2.90;96.40
4602;DHT22;2313;48.552;9.370;2023-04-06T06:23:05;3.10;95.50
4602;DHT22;2313;48.552;9.370;2023-04-06T06:25:31;3.30;95.60
4602;DHT22;2313;48.552;9.370;2023-04-06T06:27:57;3.60;95.50
4602;DHT22;2313;48.552;9.370;2023-04-06T06:30:23;4.00;93.40
4602;DHT22;2313;48.552;9.370;2023-04-06T06:32:50;4.40;91.30
4602;DHT22;2313;48.552;9.370;2023-04-06T06:35:16;4.70;89.00
4602;DHT22;2313;48.552;9.370;2023-04-06T06:37:42;4.80;87.70
4602;DHT22;2313;48.552;9.370;2023-04-06T06:40:09;4.90;86.20
4602;DHT22;2313;48.552;9.370;2023-04-06T06:42:35;5.10;85.10
4602;DHT22;2313;48.552;9.370;2023-04-06T06:45:01;5.30;83.60
4602;DHT22;2313;48.552;9.370;2023-04-06T06:47:27;5.40;83.10
4602;DHT22;2313;48.552;9.370;2023-04-06T06:49:52;5.60;82.70
4602;DHT22;2313;48.552;9.370;2023-04-06T06:52:18;5.70;80.40
4602;DHT22;2313;48.552;9.370;2023-04-06T06:54:44;5.80;79.80
4602;DHT22;2313;48.552;9.370;2023-04-06T06:57:10;5.80;78.40
4602;DHT22;2313;48.552;9.370;2023-04-06T06:59:35;6.00;78.00
4602;DHT22;2313;48.552;9.370;2023-04-06T07:02:01;6.00;77.50
4602;DHT22;2313;48.552;9.370;2023-04-06T07:04:26;6.20;76.10
4602;DHT22;2313;48.552;9.370;2023-04-06T07:06:52;6.50;74.80
4602;DHT22;2313;48.552;9.370;2023-04-06T07:09:18;6.60;74.70
4602;DHT22;2313;48.552;9.370;2023-04-06T07:11:44;6.50;74.20
4602;DHT22;2313;48.552;9.370;2023-04-06T07:14:10;6.70;75.30
4602;DHT22;2313;48.552;9.370;2023-04-06T07:16:37;6.80;74.60
4602;DHT22;2313;48.552;9.370;2023-04-06T07:19:02;6.90;75.40
4602;DHT22;2313;48.552;9.370;2023-04-06T07:21:28;7.10;75.70
4602;DHT22;2313;48.552;9.370;2023-04-06T07:23:54;7.10;73.70
4602;DHT22;2313;48.552;9.370;2023-04-06T07:26:20;7.40;75.00
4602;DHT22;2313;48.552;9.370;2023-04-06T07:28:45;7.50;73.80
4602;DHT22;2313;48.552;9.370;2023-04-06T07:31:11;7.70;72.60
4602;DHT22;2313;48.552;9.370;2023-04-06T07:33:37;7.60;70.40
4602;DHT22;2313;48.552;9.370;2023-04-06T07:36:02;7.90;71.70
4602;DHT22;2313;48.552;9.370;2023-04-06T07:38:28;8.00;69.10
4602;DHT22;2313;48.552;9.370;2023-04-06T07:40:54;8.00;66.00
4602;DHT22;2313;48.552;9.370;2023-04-06T07:43:19;8.10;66.10
4602;DHT22;2313;48.552;9.370;2023-04-06T07:45:45;8.20;64.80
4602;DHT22;2313;48.552;9.370;2023-04-06T07:48:11;8.10;63.30
4602;DHT22;2313;48.552;9.370;2023-04-06T07:50:37;8.10;64.70
4602;DHT22;2313;48.552;9.370;2023-04-06T07:53:02;8.30;65.10
4602;DHT22;2313;48.552;9.370;2023-04-06T07:55:28;8.30;62.70
4602;DHT22;2313;48.552;9.370;2023-04-06T07:57:53;8.50;64.30
4602;DHT22;2313;48.552;9.370;2023-04-06T08:00:20;8.70;62.60
4602;DHT22;2313;48.552;9.370;2023-04-06T08:02:46;9.00;63.40
4602;DHT22;2313;48.552;9.370;2023-04-06T08:05:11;9.20;61.80
4602;DHT22;2313;48.552;9.370;2023-04-06T08:07:37;9.40;62.00
4602;DHT22;2313;48.552;9.370;2023-04-06T08:10:03;9.50;60.10
4602;DHT22;2313;48.552;9.370;2023-04-06T08:12:29;9.40;59.40
4602;DHT22;2313;48.552;9.370;2023-04-06T08:14:55;9.40;59.40
4602;DHT22;2313;48.552;9.370;2023-04-06T08:17:22;9.40;59.20
4602;DHT22;2313;48.552;9.370;2023-04-06T08:19:47;9.60;60.00
4602;DHT22;2313;48.552;9.370;2023-04-06T08:22:13;9.90;61.10
4602;DHT22;2313;48.552;9.370;2023-04-06T08:24:39;10.10;59.20
4602;DHT22;2313;48.552;9.370;2023-04-06T08:27:04;10.50;59.20
4602;DHT22;2313;48.552;9.370;2023-04-06T08:29:30;10.40;58.00
4602;DHT22;2313;48.552;9.370;2023-04-06T08:31:56;10.70;59.00
4602;DHT22;2313;48.552;9.370;2023-04-06T08:34:22;10.80;58.70
4602;DHT22;2313;48.552;9.370;2023-04-06T08:36:48;10.90;58.10
4602;DHT22;2313;48.552;9.370;2023-04-06T08:39:14;11.10;57.90
4602;DHT22;2313;48.552;9.370;2023-04-06T08:41:41;11.10;58.30
4602;DHT22;2313;48.552;9.370;2023-04-06T08:44:08;11.30;58.00
4602;DHT22;2313;48.552;9.370;2023-04-06T08:46:34;11.40;58.20
4602;DHT22;2313;48.552;9.370;2023-04-06T08:49:03;11.60;57.10
4602;DHT22;2313;48.552;9.370;2023-04-06T08:51:32;12.00;57.90
4602;DHT22;2313;48.552;9.370;2023-04-06T08:53:59;12.20;57.20
4602;DHT22;2313;48.552;9.370;2023-04-06T08:56:26;12.30;56.30
4602;DHT22;2313;48.552;9.370;2023-04-06T08:58:53;12.50;56.60
4602;DHT22;2313;48.552;9.370;2023-04-06T09:01:40;12.90;55.00
4602;DHT22;2313;48.552;9.370;2023-04-06T09:04:08;12.90;53.80
4602;DHT22;2313;48.552;9.370;2023-04-06T09:06:36;13.00;56.60
4602;DHT22;2313;48.552;9.370;2023-04-06T09:09:02;13.00;54.30
4602;DHT22;2313;48.552;9.370;2023-04-06T09:11:28;13.30;53.90
4602;DHT22;2313;48.552;9.370;2023-04-06T09:13:55;13.70;54.10
4602;DHT22;2313;48.552;9.370;2023-04-06T09:16:22;14.20;51.90
4602;DHT22;2313;48.552;9.370;2023-04-06T09:18:49;14.30;49.20
4602;DHT22;2313;48.552;9.370;2023-04-06T09:21:18;14.70;49.90
4602;DHT22;2313;48.552;9.370;2023-04-06T09:23:44;14.80;50.00
4602;DHT22;2313;48.552;9.370;2023-04-06T09:26:15;15.20;48.00
4602;DHT22;2313;48.552;9.370;2023-04-06T09:28:49;15.70;45.80
4602;DHT22;2313;48.552;9.370;2023-04-06T09:31:20;15.90;44.70
4602;DHT22;2313;48.552;9.370;2023-04-06T09:33:46;16.00;43.10
4602;DHT22;2313;48.552;9.370;2023-04-06T09:36:13;16.30;44.30
4602;DHT22;2313;48.552;9.370;2023-04-06T09:41:36;16.10;40.50
4602;DHT22;2313;48.552;9.370;2023-04-06T09:44:10;16.30;42.20
4602;DHT22;2313;48.552;9.370;2023-04-06T09:46:44;16.70;40.50
4602;DHT22;2313;48.552;9.370;2023-04-06T09:49:11;16.70;39.50
4602;DHT22;2313;48.552;9.370;2023-04-06T09:51:46;16.90;37.30
4602;DHT22;2313;48.552;9.370;2023-04-06T09:54:17;17.10;37.40
4602;DHT22;2313;48.552;9.370;2023-04-06T09:57:10;17.50;36.00
4602;DHT22;2313;48.552;9.370;2023-04-06T10:03:11;18.10;36.00
4602;DHT22;2313;48.552;9.370;2023-04-06T10:08:09;18.20;36.20
4602;DHT22;2313;48.552;9.370;2023-04-06T10:10:36;18.10;36.10
4602;DHT22;2313;48.552;9.370;2023-04-06T10:13:03;17.80;34.00
4602;DHT22;2313;48.552;9.370;2023-04-06T10:15:29;17.80;34.90
4602;DHT22;2313;48.552;9.370;2023-04-06T10:17:59;18.00;34.40
4602;DHT22;2313;48.552;9.370;2023-04-06T10:20:36;18.20;34.10
4602;DHT22;2313;48.552;9.370;2023-04-06T10:23:13;18.20;33.50
4602;DHT22;2313;48.552;9.370;2023-04-06T10:25:59;18.20;32.30
4602;DHT22;2313;48.552;9.370;2023-04-06T10:28:25;18.40;31.60
4602;DHT22;2313;48.552;9.370;2023-04-06T10:31:02;18.90;32.60
4602;DHT22;2313;48.552;9.370;2023-04-06T10:33:29;18.90;31.50
4602;DHT22;2313;48.552;9.370;2023-04-06T10:35:55;18.40;29.30
4602;DHT22;2313;48.552;9.370;2023-04-06T10:38:21;18.40;30.00
4602;DHT22;2313;48.552;9.370;2023-04-06T10:41:04;18.70;31.20
4602;DHT22;2313;48.552;9.370;2023-04-06T10:43:33;19.00;30.90
4602;DHT22;2313;48.552;9.370;2023-04-06T10:46:01;19.30;33.00
4602;DHT22;2313;48.552;9.370;2023-04-06T10:48:41;19.60;33.00
4602;DHT22;2313;48.552;9.370;2023-04-06T10:51:09;19.50;32.20
4602;DHT22;2313;48.552;9.370;2023-04-06T10:53:35;19.40;32.50
4602;DHT22;2313;48.552;9.370;2023-04-06T10:56:02;19.20;32.10
4602;DHT22;2313;48.552;9.370;2023-04-06T10:58:29;19.40;32.70
4602;DHT22;2313;48.552;9.370;2023-04-06T11:00:56;19.20;30.90
4602;DHT22;2313;48.552;9.370;2023-04-06T11:03:22;19.60;31.10
4602;DHT22;2313;48.552;9.370;2023-04-06T11:05:49;19.20;29.00
4602;DHT22;2313;48.552;9.370;2023-04-06T11:08:45;19.40;28.50
4602;DHT22;2313;48.552;9.370;2023-04-06T11:11:13;19.10;28.60
4602;DHT22;2313;48.552;9.370;2023-04-06T11:16:22;19.40;29.40
4602;DHT22;2313;48.552;9.370;2023-04-06T11:19:04;19.70;30.60
4602;DHT22;2313;48.552;9.370;2023-04-06T11:21:38;19.80;29.60
4602;DHT22;2313;48.552;9.370;2023-04-06T11:26:44;19.40;27.00
4602;DHT22;2313;48.552;9.370;2023-04-06T11:29:11;19.60;27.30
4602;DHT22;2313;48.552;9.370;2023-04-06T11:31:47;19.60;28.60
4602;DHT22;2313;48.552;9.370;2023-04-06T11:34:20;19.20;26.50
4602;DHT22;2313;48.552;9.370;2023-04-06T11:36:47;19.20;26.90
4602;DHT22;2313;48.552;9.370;2023-04-06T11:39:17;19.40;28.40
4602;DHT22;2313;48.552;9.370;2023-04-06T11:41:47;19.40;28.40
4602;DHT22;2313;48.552;9.370;2023-04-06T11:44:13;19.50;28.60
4602;DHT22;2313;48.552;9.370;2023-04-06T11:46:39;19.80;29.20
4602;DHT22;2313;48.552;9.370;2023-04-06T11:49:05;19.50;27.60
4602;DHT22;2313;48.552;9.370;2023-04-06T11:51:35;19.20;28.20
4602;DHT22;2313;48.552;9.370;2023-04-06T11:54:01;19.40;28.40
4602;DHT22;2313;48.552;9.370;2023-04-06T11:56:28;19.40;28.00
4602;DHT22;2313;48.552;9.370;2023-04-06T11:58:55;19.10;27.80
4602;DHT22;2313;48.552;9.370;2023-04-06T12:01:22;19.10;26.10
4602;DHT22;2313;48.552;9.370;2023-04-06T12:03:48;19.10;26.90
4602;DHT22;2313;48.552;9.370;2023-04-06T12:06:14;19.30;27.30
4602;DHT22;2313;48.552;9.370;2023-04-06T12:08:40;19.20;24.90
4602;DHT22;2313;48.552;9.370;2023-04-06T12:11:06;19.50;27.10
4602;DHT22;2313;48.552;9.370;2023-04-06T12:13:32;19.70;26.80
4602;DHT22;2313;48.552;9.370;2023-04-06T12:15:58;20.00;28.30
4602;DHT22;2313;48.552;9.370;2023-04-06T12:18:23;19.70;26.90
4602;DHT22;2313;48.552;9.370;2023-04-06T12:20:49;19.50;26.80
4602;DHT22;2313;48.552;9.370;2023-04-06T12:23:15;19.50;27.50
4602;DHT22;2313;48.552;9.370;2023-04-06T12:25:41;19.40;27.80
4602;DHT22;2313;48.552;9.370;2023-04-06T12:28:07;19.40;26.10
4602;DHT22;2313;48.552;9.370;2023-04-06T12:30:34;19.40;26.20
4602;DHT22;2313;48.552;9.370;2023-04-06T12:33:00;19.50;25.60
4602;DHT22;2313;48.552;9.370;2023-04-06T12:35:26;19.40;26.80
4602;DHT22;2313;48.552;9.370;2023-04-06T12:37:52;19.40;27.30
4602;DHT22;2313;48.552;9.370;2023-04-06T12:40:18;19.30;25.90
4602;DHT22;2313;48.552;9.370;2023-04-06T12:42:43;19.40;26.80
4602;DHT22;2313;48.552;9.370;2023-04-06T12:45:11;19.20;26.30
4602;DHT22;2313;48.552;9.370;2023-04-06T12:47:37;19.30;26.50
4602;DHT22;2313;48.552;9.370;2023-04-06T12:50:04;19.30;25.40
4602;DHT22;2313;48.552;9.370;2023-04-06T12:52:31;18.90;26.10
4602;DHT22;2313;48.552;9.370;2023-04-06T12:54:57;18.70;26.00
4602;DHT22;2313;48.552;9.370;2023-04-06T12:57:24;18.80;25.00
4602;DHT22;2313;48.552;9.370;2023-04-06T12:59:50;18.70;26.00
4602;DHT22;2313;48.552;9.370;2023-04-06T13:02:16;18.90;26.60
4602;DHT22;2313;48.552;9.370;2023-04-06T13:04:42;19.00;26.40
4602;DHT22;2313;48.552;9.370;2023-04-06T13:07:08;18.70;23.50
4602;DHT22;2313;48.552;9.370;2023-04-06T13:09:33;18.90;24.70
4602;DHT22;2313;48.552;9.370;2023-04-06T13:11:59;19.10;26.20
4602;DHT22;2313;48.552;9.370;2023-04-06T13:14:26;19.50;25.10
4602;DHT22;2313;48.552;9.370;2023-04-06T13:16:51;19.40;23.70
4602;DHT22;2313;48.552;9.370;2023-04-06T13:19:17;19.40;24.80
4602;DHT22;2313;48.552;9.370;2023-04-06T13:21:43;19.40;25.80
4602;DHT22;2313;48.552;9.370;2023-04-06T13:24:09;19.30;24.90
4602;DHT22;2313;48.552;9.370;2023-04-06T13:26:35;18.60;23.20
4602;DHT22;2313;48.552;9.370;2023-04-06T13:29:01;18.50;25.40
4602;DHT22;2313;48.552;9.370;2023-04-06T13:31:28;18.30;24.40
4602;DHT22;2313;48.552;9.370;2023-04-06T13:33:54;18.30;24.50
4602;DHT22;2313;48.552;9.370;2023-04-06T13:36:19;18.10;25.10
4602;DHT22;2313;48.552;9.370;2023-04-06T13:38:45;18.10;24.70
4602;DHT22;2313;48.552;9.370;2023-04-06T13:41:22;18.20;25.30
4602;DHT22;2313;48.552;9.370;2023-04-06T13:43:48;18.20;25.60
4602;DHT22;2313;48.552;9.370;2023-04-06T13:46:13;18.30;25.40
4602;DHT22;2313;48.552;9.370;2023-04-06T13:48:41;18.40;24.50
4602;DHT22;2313;48.552;9.370;2023-04-06T13:51:10;18.50;24.10
4602;DHT22;2313;48.552;9.370;2023-04-06T13:53:35;18.20;24.70
4602;DHT22;2313;48.552;9.370;2023-04-06T13:56:01;17.90;23.00
4602;DHT22;2313;48.552;9.370;2023-04-06T13:58:27;17.70;23.60
4602;DHT22;2313;48.552;9.370;2023-04-06T14:00:52;17.50;23.60
4602;DHT22;2313;48.552;9.370;2023-04-06T14:03:18;17.50;24.50
4602;DHT22;2313;48.552;9.370;2023-04-06T14:05:47;17.20;24.50
4602;DHT22;2313;48.552;9.370;2023-04-06T14:08:12;16.90;25.30
4602;DHT22;2313;48.552;9.370;2023-04-06T14:10:41;16.90;25.40
4602;DHT22;2313;48.552;9.370;2023-04-06T14:13:10;16.80;26.00
4602;DHT22;2313;48.552;9.370;2023-04-06T14:15:35;16.70;25.40
4602;DHT22;2313;48.552;9.370;2023-04-06T14:18:01;16.00;23.40
4602;DHT22;2313;48.552;9.370;2023-04-06T14:20:27;15.90;23.30
4602;DHT22;2313;48.552;9.370;2023-04-06T14:22:53;15.70;22.50
4602;DHT22;2313;48.552;9.370;2023-04-06T14:25:19;15.50;22.50
4602;DHT22;2313;48.552;9.370;2023-04-06T14:27:45;15.60;23.60
4602;DHT22;2313;48.552;9.370;2023-04-06T14:30:11;15.60;23.90
4602;DHT22;2313;48.552;9.370;2023-04-06T14:32:37;15.80;24.40
4602;DHT22;2313;48.552;9.370;2023-04-06T14:35:04;15.80;23.40
4602;DHT22;2313;48.552;9.370;2023-04-06T14:37:30;15.90;24.10
4602;DHT22;2313;48.552;9.370;2023-04-06T14:39:55;15.90;24.80
4602;DHT22;2313;48.552;9.370;2023-04-06T14:42:21;15.70;23.20
4602;DHT22;2313;48.552;9.370;2023-04-06T14:44:46;15.60;23.40
4602;DHT22;2313;48.552;9.370;2023-04-06T14:47:14;15.60;24.00
4602;DHT22;2313;48.552;9.370;2023-04-06T14:49:45;15.70;24.10
4602;DHT22;2313;48.552;9.370;2023-04-06T14:52:11;15.60;23.80
4602;DHT22;2313;48.552;9.370;2023-04-06T14:54:37;15.40;22.90
4602;DHT22;2313;48.552;9.370;2023-04-06T14:57:02;15.50;23.90
4602;DHT22;2313;48.552;9.370;2023-04-06T14:59:28;15.40;23.80
4602;DHT22;2313;48.552;9.370;2023-04-06T15:01:54;15.00;21.20
4602;DHT22;2313;48.552;9.370;2023-04-06T15:04:19;14.60;22.20
4602;DHT22;2313;48.552;9.370;2023-04-06T15:06:45;14.70;24.80
4602;DHT22;2313;48.552;9.370;2023-04-06T15:09:11;14.60;25.20
4602;DHT22;2313;48.552;9.370;2023-04-06T15:11:36;14.70;25.10
4602;DHT22;2313;48.552;9.370;2023-04-06T15:14:03;14.70;25.00
4602;DHT22;2313;48.552;9.370;2023-04-06T15:16:28;14.80;25.70
4602;DHT22;2313;48.552;9.370;2023-04-06T15:18:58;14.80;24.90
4602;DHT22;2313;48.552;9.370;2023-04-06T15:21:24;14.60;24.70
4602;DHT22;2313;48.552;9.370;2023-04-06T15:23:50;14.70;25.20
4602;DHT22;2313;48.552;9.370;2023-04-06T15:26:16;14.70;24.70
4602;DHT22;2313;48.552;9.370;2023-04-06T15:28:42;14.70;25.30
4602;DHT22;2313;48.552;9.370;2023-04-06T15:31:20;14.60;25.30
4602;DHT22;2313;48.552;9.370;2023-04-06T15:33:46;14.50;25.50
4602;DHT22;2313;48.552;9.370;2023-04-06T15:36:28;14.40;26.00
4602;DHT22;2313;48.552;9.370;2023-04-06T15:38:56;14.50;26.80
4602;DHT22;2313;48.552;9.370;2023-04-06T15:41:22;14.50;25.40
4602;DHT22;2313;48.552;9.370;2023-04-06T15:43:48;14.40;26.50
4602;DHT22;2313;48.552;9.370;2023-04-06T15:46:16;14.40;26.50
4602;DHT22;2313;48.552;9.370;2023-04-06T15:48:42;14.40;26.90
4602;DHT22;2313;48.552;9.370;2023-04-06T15:51:07;14.30;26.90
4602;DHT22;2313;48.552;9.370;2023-04-06T15:53:33;14.30;28.90
4602;DHT22;2313;48.552;9.370;2023-04-06T15:56:01;14.30;29.20
4602;DHT22;2313;48.552;9.370;2023-04-06T15:58:27;14.20;29.10
4602;DHT22;2313;48.552;9.370;2023-04-06T16:00:53;14.30;29.20
4602;DHT22;2313;48.552;9.370;2023-04-06T16:03:19;14.30;28.60
4602;DHT22;2313;48.552;9.370;2023-04-06T16:05:45;14.30;29.20
4602;DHT22;2313;48.552;9.370;2023-04-06T16:08:11;14.10;28.80
4602;DHT22;2313;48.552;9.370;2023-04-06T16:10:39;14.00;28.30
4602;DHT22;2313;48.552;9.370;2023-04-06T16:13:05;14.00;28.30
4602;DHT22;2313;48.552;9.370;2023-04-06T16:15:31;14.00;26.80
4602;DHT22;2313;48.552;9.370;2023-04-06T16:17:56;13.90;27.60
4602;DHT22;2313;48.552;9.370;2023-04-06T16:20:22;13.80;27.70